Latest Weather Observations for Griffith

IDN60801

Issued at 2:42 pm EST Saturday 4 July 2020 (issued every 10 minutes, with the page automatically refreshed every 10 minutes)

About weather observations | Map of weather stations | Latest weather observations for NSW | Other Formats
Station Details ID: 075041 Name: GRIFFITH AIRPORT AWS Lat: -34.25 Lon: 146.07 Height: 134.0 m
Data from the previous 72 hours. | See also: Recent months at Griffith
Date/Time
EST
Temp
°C
App
Temp
°C
Dew
Point
°C
Rel
Hum
%
Delta-T
°C
Wind Press
QNH
hPa
Press
MSL
hPa
Rain since
9am
mm
Dir  Spd
km/h
Gust
km/h
Spd
kts
Gust
kts
04/02:30pm 11.0 5.8 5.7 70 2.5 WSW 22 28 12 15 1025.7 1025.9 0.0
04/02:00pm 10.6 5.3 5.2 69 2.5 WSW 22 32 12 17 1025.5 1025.7 0.0
04/01:30pm 10.8 5.5 5.1 68 2.6 WSW 22 33 12 18 1026.0 1026.2 0.0
04/01:00pm 11.0 5.8 5.5 69 2.5 SW 22 30 12 16 1026.2 1026.4 0.0
04/12:30pm 10.6 5.4 5.4 70 2.4 SW 22 32 12 17 1026.4 1026.6 0.0
04/12:00pm 10.3 4.7 5.3 71 2.3 WSW 24 32 13 17 1026.8 1027.1 0.0
04/11:30am 9.3 4.1 5.3 76 1.8 WSW 22 30 12 16 1027.1 1027.4 0.0
04/11:00am 8.4 3.2 5.3 81 1.4 SW 22 30 12 16 1027.4 1027.7 0.0
04/10:30am 7.1 1.4 4.8 85 1.0 WSW 24 32 13 17 1027.4 1027.7 0.0
04/10:00am 6.1 1.2 4.1 87 0.9 WSW 19 24 10 13 1027.5 1027.8 0.0
04/09:30am 5.1 -0.1 3.8 91 0.5 WSW 20 30 11 16 1027.2 1027.5 0.0
04/09:00am 3.9 -0.8 3.2 95 0.3 WSW 17 24 9 13 1027.1 1027.4 6.2
04/08:30am 3.0 -0.3 2.7 98 0.1 W 9 13 5 7 1026.7 1027.0 6.2
04/08:00am 1.5 -2.0 1.2 98 0.1 WNW 9 11 5 6 1026.3 1026.5 6.2
04/07:30am 0.9 -3.1 0.6 98 0.1 WNW 11 13 6 7 1026.0 1026.2 6.2
04/07:00am 1.2 -2.4 0.8 97 0.1 NW 9 11 5 6 1025.7 1025.9 6.2
04/06:30am 1.2 -2.4 0.6 96 0.2 WNW 9 13 5 7 1025.4 1025.6 6.2
04/06:00am 2.1 -1.8 1.4 95 0.3 W 11 13 6 7 1025.1 1025.3 6.2
04/05:30am 2.9 -1.2 2.0 94 0.4 WSW 13 17 7 9 1024.8 1025.0 6.2
04/05:00am 3.5 -1.4 2.3 92 0.5 SW 17 22 9 12 1024.2 1024.4 6.2
04/04:30am 3.8 -1.6 2.6 92 0.5 SW 20 28 11 15 1024.2 1024.4 6.2
04/04:00am 4.1 -2.0 2.9 92 0.5 SW 24 30 13 16 1024.0 1024.2 6.2
04/03:30am 4.2 -2.3 2.9 91 0.5 WSW 26 32 14 17 1023.8 1024.0 6.2
04/03:00am 4.4 -2.1 2.9 90 0.6 SW 26 32 14 17 1023.8 1024.0 6.2
04/02:30am 4.6 -1.4 3.3 91 0.5 WSW 24 30 13 16 1023.7 1023.9 6.2
04/02:00am 4.7 -0.9 3.2 90 0.6 WSW 22 30 12 16 1023.7 1023.9 6.2
04/01:30am 4.9 -0.7 3.4 90 0.6 WSW 22 28 12 15 1023.3 1023.6 6.2
04/01:00am 5.0 -0.6 3.7 91 0.5 WSW 22 28 12 15 1023.2 1023.5 6.2
04/12:30am 5.1 -0.1 3.8 91 0.5 WSW 20 26 11 14 1023.1 1023.4 6.2
04/12:00am 5.4 -0.1 4.1 91 0.6 WSW 22 28 12 15 1022.9 1023.2 6.2
 
Date/Time
EST
Temp
°C
App
Temp
°C
Dew
Point
°C
Rel
Hum
%
Delta-T
°C
Wind Press
QNH
hPa
Press
MSL
hPa
Rain since
9am
mm
Dir  Spd
km/h
Gust
km/h
Spd
kts
Gust
kts
03/11:30pm 5.9 0.5 4.7 92 0.5 WSW 22 33 12 18 1022.8 1023.1 6.2
03/11:00pm 6.4 1.1 5.2 92 0.5 WSW 22 30 12 16 1022.4 1022.7 6.2
03/10:30pm 6.9 2.1 5.5 91 0.6 WSW 20 28 11 15 1022.3 1022.6 6.2
03/10:00pm 7.6 2.5 6.2 91 0.6 WSW 22 28 12 15 1021.9 1022.2 6.2
03/09:30pm 8.6 2.6 7.2 91 0.7 SW 28 39 15 21 1021.7 1022.0 6.2
03/09:27pm 8.7 3.2 7.6 93 0.5 SW 26 39 14 21 1021.6 1021.9 6.2
03/09:00pm 8.9 3.6 8.3 96 0.3 W 26 35 14 19 1021.5 1021.8 6.2
03/08:48pm 8.8 4.6 8.2 96 0.3 W 20 30 11 16 1021.2 1021.5 6.2
03/08:30pm 8.8 4.5 8.0 95 0.4 W 20 30 11 16 1020.9 1021.2 6.2
03/08:00pm 9.2 4.6 8.0 92 0.6 W 22 30 12 16 1020.9 1021.2 3.0
03/07:46pm 9.7 3.8 7.5 86 1.1 WNW 28 46 15 25 1020.8 1021.1 1.8
03/07:30pm 10.2 5.8 6.7 79 1.7 NW 19 26 10 14 1020.3 1020.5 0.2
03/07:00pm 11.1 6.3 5.4 68 2.6 NNW 20 28 11 15 1019.7 1019.9 0.0
03/06:30pm 11.4 6.6 5.5 67 2.7 NNW 20 28 11 15 1020.0 1020.2 0.0
03/06:00pm 11.5 7.2 5.4 66 2.8 NNW 17 22 9 12 1020.4 1020.7 0.0
03/05:30pm 11.7 7.0 5.3 65 3.0 NNW 19 24 10 13 1020.4 1020.7 0.0
03/05:00pm 12.3 7.6 5.2 62 3.3 NW 19 24 10 13 1020.6 1020.9 0.0
03/04:30pm 12.7 8.4 5.1 60 3.5 WNW 17 26 9 14 1020.7 1021.0 0.0
03/04:00pm 13.1 7.4 5.0 58 3.8 WNW 24 32 13 17 1020.7 1021.0 0.0
03/03:30pm 13.9 8.3 5.5 57 4.0 WNW 24 33 13 18 1021.0 1021.3 0.0
03/03:00pm 13.3 7.6 4.7 56 4.0 WNW 24 32 13 17 1021.1 1021.4 0.0
03/02:30pm 13.2 7.5 5.1 58 3.8 WNW 24 32 13 17 1021.3 1021.6 0.0
03/02:00pm 13.3 8.0 5.2 58 3.8 WNW 22 32 12 17 1021.5 1021.8 0.0
03/01:30pm 13.2 7.6 5.4 59 3.7 WNW 24 32 13 17 1021.8 1022.1 0.0
03/01:00pm 12.9 7.8 6.0 63 3.3 NW 22 28 12 15 1022.3 1022.6 0.0
03/12:30pm 12.5 7.7 5.7 63 3.2 W 20 30 11 16 1022.8 1023.1 0.0
03/12:00pm 11.8 7.6 5.7 66 2.8 WNW 17 22 9 12 1023.2 1023.5 0.0
03/11:30am 11.6 7.9 6.5 71 2.4 WNW 15 20 8 11 1023.8 1024.0 0.0
03/11:00am 10.5 7.1 5.7 72 2.2 WNW 13 17 7 9 1023.8 1024.0 0.0
03/10:30am 9.6 6.6 6.1 79 1.6 WNW 11 15 6 8 1023.8 1024.0 0.0
03/10:00am 8.2 5.0 5.0 80 1.4 NW 11 15 6 8 1023.8 1024.0 0.0
03/09:30am 7.4 3.9 5.4 87 0.9 NNW 13 15 7 8 1023.6 1023.8 0.0
03/09:00am 5.4 3.0 4.5 94 0.4 NW 6 7 3 4 1023.4 1023.7 0.0
03/08:30am 2.7 -0.1 2.3 97 0.2 W 6 6 3 3 1023.1 1023.4 0.0
03/08:00am 1.0 -0.9 0.7 98 0.1 CALM 0 0 0 0 1023.0 1023.3 0.0
03/07:30am 0.1 -1.9 -0.3 97 0.1 CALM 0 0 0 0 1022.9 1023.2 0.0
03/07:00am 0.0 -2.1 -0.6 96 0.2 CALM 0 0 0 0 1022.5 1022.8 0.0
03/06:30am 0.4 -1.6 -0.2 96 0.2 CALM 0 0 0 0 1022.1 1022.4 0.0
03/06:00am 0.4 -2.8 -0.3 95 0.3 N 6 7 3 4 1021.6 1021.9 0.0
03/05:30am 0.4 -2.8 -0.3 95 0.3 N 6 9 3 5 1021.4 1021.7 0.0
03/05:00am 1.4 -0.5 0.7 95 0.3 CALM 0 0 0 0 1021.1 1021.4 0.0
03/04:30am 1.9 -1.1 0.9 93 0.4 WNW 6 9 3 5 1021.0 1021.3 0.0
03/04:00am 2.3 -0.9 0.8 90 0.6 NNW 7 9 4 5 1021.0 1021.3 0.0
03/03:30am 4.3 1.5 3.0 91 0.5 WNW 7 9 4 5 1021.0 1021.3 0.0
03/03:00am 3.9 1.2 2.9 93 0.4 WNW 6 7 3 4 1020.9 1021.2 0.0
03/02:30am 2.6 -0.4 1.7 94 0.4 WSW 7 9 4 5 1021.1 1021.4 0.0
03/02:00am 2.6 0.9 1.7 94 0.3 CALM 0 0 0 0 1021.1 1021.4 0.0
03/01:30am 3.2 1.6 2.3 94 0.4 CALM 0 0 0 0 1021.1 1021.4 0.0
03/01:00am 3.4 1.8 2.5 94 0.4 CALM 0 0 0 0 1021.0 1021.3 0.0
03/12:30am 3.2 1.5 2.0 92 0.5 CALM 0 0 0 0 1020.9 1021.2 0.0
03/12:00am 3.5 1.8 2.0 90 0.6 CALM 0 6 0 3 1020.7 1021.0 0.0
 
Date/Time
EST
Temp
°C
App
Temp
°C
Dew
Point
°C
Rel
Hum
%
Delta-T
°C
Wind Press
QNH
hPa
Press
MSL
hPa
Rain since
9am
mm
Dir  Spd
km/h
Gust
km/h
Spd
kts
Gust
kts
02/11:30pm 4.8 3.4 3.8 93 0.4 CALM 0 0 0 0 1020.7 1021.0 0.0
02/11:00pm 4.5 3.1 3.5 93 0.4 CALM 0 0 0 0 1020.6 1020.9 0.0
02/10:30pm 4.4 2.9 3.1 91 0.5 CALM 0 0 0 0 1020.6 1020.9 0.0
02/10:00pm 5.6 4.5 4.9 95 0.3 CALM 0 0 0 0 1020.6 1020.9 0.0
02/09:30pm 4.4 3.0 3.4 93 0.4 CALM 0 0 0 0 1020.4 1020.7 0.0
02/09:00pm 4.5 1.7 3.3 92 0.5 N 7 9 4 5 1020.2 1020.4 0.0
02/08:30pm 4.3 2.7 2.5 88 0.7 CALM 0 0 0 0 1019.8 1020.0 0.0
02/08:00pm 5.0 3.6 3.7 91 0.5 CALM 0 0 0 0 1019.7 1019.9 0.0
02/07:30pm 5.5 4.1 3.7 88 0.8 CALM 0 0 0 0 1019.5 1019.7 0.0
02/07:00pm 6.1 3.6 3.8 85 1.0 N 6 7 3 4 1019.3 1019.5 0.0
02/06:30pm 7.0 5.6 3.8 80 1.4 CALM 0 0 0 0 1018.9 1019.1 0.0
02/06:00pm 9.1 7.9 4.5 73 2.0 CALM 0 0 0 0 1018.6 1018.8 0.0
02/05:30pm 11.3 9.1 5.4 67 2.7 WSW 6 7 3 4 1018.3 1018.5 0.0
02/05:00pm 12.7 9.7 5.8 63 3.3 W 11 13 6 7 1018.1 1018.3 0.0
02/04:30pm 13.2 10.2 5.9 61 3.5 W 11 13 6 7 1017.7 1017.9 0.0
02/04:00pm 14.3 9.9 4.9 53 4.4 W 17 24 9 13 1017.4 1017.6 0.0
02/03:30pm 15.2 11.3 5.4 52 4.7 W 15 22 8 12 1017.3 1017.5 0.0
02/03:00pm 14.7 10.3 5.0 52 4.6 WNW 17 24 9 13 1017.3 1017.5 0.0
02/02:30pm 15.0 10.6 4.7 50 4.8 W 17 24 9 13 1017.2 1017.4 0.0
02/02:00pm 15.0 10.0 4.7 50 4.8 WNW 20 28 11 15 1017.1 1017.3 0.0
02/01:30pm 14.9 10.1 4.9 51 4.7 WNW 19 26 10 14 1017.3 1017.5 0.0
02/01:00pm 14.9 10.9 6.5 57 4.1 WNW 17 28 9 15 1017.4 1017.6 0.0
02/12:30pm 13.8 9.9 7.1 64 3.3 WNW 17 20 9 11 1017.8 1018.0 0.0
02/12:00pm 13.2 8.6 6.5 64 3.2 W 20 26 11 14 1018.0 1018.2 0.0
02/11:30am 13.2 8.8 7.2 67 2.9 WSW 20 24 11 13 1018.2 1018.4 0.0
02/11:00am 14.1 9.7 7.2 63 3.4 WNW 20 26 11 14 1017.9 1018.1 0.0
02/10:30am 13.5 8.7 7.5 67 3.0 W 22 32 12 17 1018.1 1018.3 0.0
02/10:00am 13.1 8.8 7.1 67 2.9 W 19 26 10 14 1017.9 1018.1 0.0
02/09:30am 11.9 9.3 7.6 75 2.1 WNW 11 15 6 8 1017.7 1017.9 0.0
02/09:00am 8.7 8.1 7.5 92 0.6 CALM 0 4 0 2 1017.6 1017.8 0.0
02/08:30am 7.6 5.6 6.2 91 0.6 WSW 6 11 3 6 1017.3 1017.5 0.0
02/08:00am 7.1 6.1 5.6 90 0.7 CALM 0 0 0 0 1017.0 1017.2 0.0
02/07:30am 7.1 6.0 5.3 88 0.8 CALM 0 0 0 0 1016.5 1016.7 0.0
02/07:00am 7.2 5.0 5.2 87 0.9 N 6 9 3 5 1016.1 1016.3 0.0
02/06:30am 7.8 5.3 4.9 82 1.3 NNW 7 9 4 5 1015.8 1016.0 0.0
02/06:00am 9.1 7.0 5.7 79 1.6 W 6 7 3 4 1015.3 1015.6 0.0
02/05:30am 10.4 7.1 6.4 76 1.9 SW 13 17 7 9 1014.7 1015.0 0.0
02/05:00am 11.9 7.5 6.6 70 2.5 SW 19 26 10 14 1014.3 1014.6 0.0
02/04:30am 13.8 7.4 7.1 64 3.3 W 30 44 16 24 1013.6 1013.8 0.0
02/04:00am 15.6 10.4 7.1 57 4.2 NW 24 32 13 17 1012.8 1013.0 0.0
02/03:30am 16.9 10.6 7.5 54 4.7 WNW 30 39 16 21 1012.3 1012.5 0.0
02/03:00am 17.1 11.2 7.5 53 4.9 NNW 28 39 15 21 1011.4 1011.6 0.0
02/02:30am 16.0 10.5 7.5 57 4.3 N 26 33 14 18 1011.5 1011.7 0.0
02/02:00am 16.9 10.2 7.3 53 4.8 N 32 43 17 23 1011.6 1011.8 0.0
02/01:30am 16.7 10.0 7.4 54 4.7 N 32 41 17 22 1011.5 1011.7 0.0
02/01:00am 16.2 10.3 7.4 56 4.4 N 28 37 15 20 1011.9 1012.1 0.0
02/12:30am 15.8 9.5 7.6 58 4.1 N 30 39 16 21 1012.2 1012.4 0.0
02/12:00am 16.0 10.2 8.0 59 4.1 N 28 37 15 20 1012.5 1012.7 0.0
 
Date/Time
EST
Temp
°C
App
Temp
°C
Dew
Point
°C
Rel
Hum
%
Delta-T
°C
Wind Press
QNH
hPa
Press
MSL
hPa
Rain since
9am
mm
Dir  Spd
km/h
Gust
km/h
Spd
kts
Gust
kts
01/11:30pm 15.6 9.8 8.1 61 3.8 N 28 37 15 20 1012.7 1012.9 0.0
01/11:00pm 15.8 10.4 8.1 60 3.9 N 26 33 14 18 1013.0 1013.2 0.0
01/10:30pm 15.9 10.9 8.2 60 3.9 N 24 32 13 17 1013.1 1013.3 0.0
01/10:00pm 16.4 11.4 8.1 58 4.2 N 24 33 13 18 1013.2 1013.4 0.0
01/09:30pm 16.3 11.2 7.5 56 4.4 N 24 33 13 18 1013.4 1013.6 0.0
01/09:00pm 16.4 11.2 7.3 55 4.6 N 24 32 13 17 1013.4 1013.6 0.0
01/08:30pm 16.0 11.6 7.2 56 4.4 N 20 26 11 14 1013.6 1013.8 0.0
01/08:00pm 16.1 11.2 6.8 54 4.6 N 22 32 12 17 1013.6 1013.8 0.0
01/07:30pm 16.0 11.7 7.2 56 4.4 N 19 24 10 13 1013.8 1014.0 0.0
01/07:00pm 15.3 12.7 9.4 68 3.1 NE 13 17 7 9 1014.0 1014.2 0.0
01/06:30pm 14.6 12.1 9.6 72 2.6 ENE 13 17 7 9 1014.1 1014.3 0.0
01/06:00pm 14.2 11.7 9.6 74 2.4 ENE 13 15 7 8 1014.0 1014.2 0.0
01/05:30pm 15.1 13.7 8.8 66 3.2 ENE 6 9 3 5 1014.1 1014.3 0.0
01/05:00pm 16.0 14.5 9.0 63 3.6 N 7 9 4 5 1014.2 1014.5 0.0
01/04:30pm 16.5 14.3 9.4 63 3.7 NNE 11 15 6 8 1014.2 1014.5 0.0
01/04:00pm 17.1 14.5 9.3 60 4.1 N 13 17 7 9 1014.4 1014.7 0.0
01/03:30pm 17.4 14.2 8.5 56 4.6 N 15 20 8 11 1014.6 1014.9 0.0
01/03:00pm 17.9 13.6 7.9 52 5.1 N 20 28 11 15 1014.9 1015.2 0.0

Other formats

Comma delimited format used in spreadsheet applications
http://www.bom.gov.au/fwo/IDN60801/IDN60801.95704.axf

JavaScript Object Notation format (JSON) in row-major order
http://www.bom.gov.au/fwo/IDN60801/IDN60801.95704.json

Data quality

Most of these data are generated automatically and are frequently updated. Quality checks on data are not normally performed. It is possible for incorrect values to appear. Refer to information at About Latest Weather Observations and please check the disclaimer before using these data.